KPIH/PIH METAR and TAF weather

Enter ICAO airport designator
Station Type Date Time Source
KPIH METAR 2018/12/10 08:53 UTC NOAA

KPIH 100853Z AUTO 00000KT 8SM CLR M09/M11 A3034 RMK AO2 SLP315 I3001 T10891106 58013


Station Type Date Time Source
KPIH Decoded METAR 2018/12/10 08:53 UTC NOAA

POCATELLO REGIONAL AIRPORT, ID, United States (KPIH) 42-55N 112-36W 1359M
Dec 10, 2018 - 03:53 AM EST / 2018.12.10 0853 UTC
Wind: Calm:0
Visibility: 8 mile(s):0
Sky conditions: clear
Temperature: 16.0 F (-8.9 C)
Dew Point: 12.9 F (-10.6 C)
Relative Humidity: 87%
Pressure (altimeter): 30.34 in. Hg (1027 hPa)
Pressure tendency: 0.04 inches (1.3 hPa) lower than three hours ago
ob: KPIH 100853Z AUTO 00000KT 8SM CLR M09/M11 A3034 RMK AO2 SLP315 I3001 T10891106 58013
cycle: 9

Station Type Date Time Source
KPIH TAF 2018/12/10 06:36 UTC NOAA

TAF
AMD KPIH 100534Z 1006/1106 16006KT P6SM SCT200
TEMPO 1006/1009 2SM BR
FM102200 18006KT P6SM SCT080 BKN110
FM110400 20008KT 4SM -SN BR BKN010 OVC025


Example: see airport list